Mc Neil, Arkansas
Current Conditions -  °F | °C
As of 9:00 PM on Monday 22 Dec 2014 (Local Time) from KELD Reporting Station
Moderate Fog Moderate Fog  
Wind Chill: 52°   Ceiling: 300
Heat Index: 52°   Visibility: 0.5mi
Dew Point: 52°   Wind: 0mph
Humidity: 100%   Direction: NA
Pressure: 29.64"   Gusts: NA
Location:  33.3852°N, 93.1737°W
Report Text: KELD 230300Z AUTO 00000KT 1/2SM FG VV003 11/11 A2964 RMK AO2 T01110111
Loading
Personal Weather Stations






























Interactive Weather Map New forecast layout! Learn more

10-Day Weather Forecast

Advertisements
Track Severe Weather on mobile